sensor_id;sensor_type;location;lat;lon;timestamp;pressure;altitude;pressure_sealevel;temperature;humidity
66021;BME280;52789;59.980;30.346;2024-02-15T00:00:41;102523.63;;;-7.18;100.00
66021;BME280;52789;59.980;30.346;2024-02-15T00:03:08;102539.06;;;-7.01;100.00
66021;BME280;52789;59.980;30.346;2024-02-15T00:05:39;102542.50;;;-6.96;100.00
66021;BME280;52789;59.980;30.346;2024-02-15T00:08:04;102542.47;;;-6.87;100.00
66021;BME280;52789;59.980;30.346;2024-02-15T00:10:31;102535.59;;;-6.94;100.00
66021;BME280;52789;59.980;30.346;2024-02-15T00:12:58;102523.59;;;-7.10;100.00
66021;BME280;52789;59.980;30.346;2024-02-15T00:15:23;102549.41;;;-6.98;100.00
66021;BME280;52789;59.980;30.346;2024-02-15T00:17:49;102541.66;;;-6.92;100.00
66021;BME280;52789;59.980;30.346;2024-02-15T00:20:14;102496.00;;;-7.14;100.00
66021;BME280;52789;59.980;30.346;2024-02-15T00:22:41;102546.81;;;-6.89;100.00
66021;BME280;52789;59.980;30.346;2024-02-15T00:25:07;102521.00;;;-7.07;100.00
66021;BME280;52789;59.980;30.346;2024-02-15T00:27:35;102547.69;;;-6.96;100.00
66021;BME280;52789;59.980;30.346;2024-02-15T00:30:01;102514.97;;;-7.09;100.00
66021;BME280;52789;59.980;30.346;2024-02-15T00:32:29;102540.81;;;-7.00;100.00
66021;BME280;52789;59.980;30.346;2024-02-15T00:34:55;102543.47;;;-7.12;100.00
66021;BME280;52789;59.980;30.346;2024-02-15T00:37:20;102530.53;;;-7.17;100.00
66021;BME280;52789;59.980;30.346;2024-02-15T00:39:46;102531.41;;;-7.20;100.00
66021;BME280;52789;59.980;30.346;2024-02-15T00:42:11;102552.94;;;-7.08;100.00
66021;BME280;52789;59.980;30.346;2024-02-15T00:44:37;102526.22;;;-7.18;100.00
66021;BME280;52789;59.980;30.346;2024-02-15T00:47:03;102516.72;;;-7.24;100.00
66021;BME280;52789;59.980;30.346;2024-02-15T00:49:29;102515.00;;;-7.15;100.00
66021;BME280;52789;59.980;30.346;2024-02-15T00:51:54;102543.44;;;-7.09;100.00
66021;BME280;52789;59.980;30.346;2024-02-15T00:54:20;102521.09;;;-7.30;100.00
66021;BME280;52789;59.980;30.346;2024-02-15T00:56:45;102543.50;;;-7.20;100.00
66021;BME280;52789;59.980;30.346;2024-02-15T00:59:11;102503.06;;;-7.47;100.00
66021;BME280;52789;59.980;30.346;2024-02-15T01:01:37;102530.59;;;-7.34;100.00
66021;BME280;52789;59.980;30.346;2024-02-15T01:04:04;102520.25;;;-7.38;100.00
66021;BME280;52789;59.980;30.346;2024-02-15T01:06:30;102524.53;;;-7.22;100.00
66021;BME280;52789;59.980;30.346;2024-02-15T01:08:56;102534.03;;;-7.23;100.00
66021;BME280;52789;59.980;30.346;2024-02-15T01:11:22;102519.41;;;-7.42;100.00
66021;BME280;52789;59.980;30.346;2024-02-15T01:13:49;102534.94;;;-7.40;100.00
66021;BME280;52789;59.980;30.346;2024-02-15T01:16:16;102514.31;;;-7.63;100.00
66021;BME280;52789;59.980;30.346;2024-02-15T01:18:41;102454.00;;;-7.85;100.00
66021;BME280;52789;59.980;30.346;2024-02-15T01:21:07;102515.13;;;-7.46;100.00
66021;BME280;52789;59.980;30.346;2024-02-15T01:23:33;102485.84;;;-7.65;100.00
66021;BME280;52789;59.980;30.346;2024-02-15T01:26:02;102539.22;;;-7.32;100.00
66021;BME280;52789;59.980;30.346;2024-02-15T01:28:28;102542.63;;;-7.27;100.00
66021;BME280;52789;59.980;30.346;2024-02-15T01:30:54;102542.66;;;-7.22;100.00
66021;BME280;52789;59.980;30.346;2024-02-15T01:33:20;102524.56;;;-7.36;100.00
66021;BME280;52789;59.980;30.346;2024-02-15T01:35:45;102509.91;;;-7.37;100.00
66021;BME280;52789;59.980;30.346;2024-02-15T01:38:11;102520.28;;;-7.40;100.00
66021;BME280;52789;59.980;30.346;2024-02-15T01:40:36;102512.56;;;-7.51;100.00
66021;BME280;52789;59.980;30.346;2024-02-15T01:43:03;102466.94;;;-7.81;100.00
66021;BME280;52789;59.980;30.346;2024-02-15T01:45:29;102522.03;;;-7.45;100.00
66021;BME280;52789;59.980;30.346;2024-02-15T01:47:55;102543.53;;;-7.32;100.00
66021;BME280;52789;59.980;30.346;2024-02-15T01:50:23;102540.13;;;-7.40;100.00
66021;BME280;52789;59.980;30.346;2024-02-15T01:52:52;102491.91;;;-7.66;100.00
66021;BME280;52789;59.980;30.346;2024-02-15T01:55:18;102527.22;;;-7.48;100.00
66021;BME280;52789;59.980;30.346;2024-02-15T01:57:44;102519.44;;;-7.57;100.00
66021;BME280;52789;59.980;30.346;2024-02-15T02:00:15;102510.84;;;-7.59;100.00
66021;BME280;52789;59.980;30.346;2024-02-15T02:02:53;102504.78;;;-7.49;100.00
66021;BME280;52789;59.980;30.346;2024-02-15T02:05:19;102546.09;;;-7.28;100.00
66021;BME280;52789;59.980;30.346;2024-02-15T02:07:45;102552.13;;;-7.26;100.00
66021;BME280;52789;59.980;30.346;2024-02-15T02:10:11;102528.00;;;-7.35;100.00
66021;BME280;52789;59.980;30.346;2024-02-15T02:12:39;102542.69;;;-7.39;100.00
66021;BME280;52789;59.980;30.346;2024-02-15T02:15:08;102549.59;;;-7.35;100.00
66021;BME280;52789;59.980;30.346;2024-02-15T02:17:34;102545.28;;;-7.37;100.00
66021;BME280;52789;59.980;30.346;2024-02-15T02:20:01;102544.44;;;-7.41;100.00
66021;BME280;52789;59.980;30.346;2024-02-15T02:22:35;102470.38;;;-7.85;100.00
66021;BME280;52789;59.980;30.346;2024-02-15T02:25:03;102525.50;;;-7.49;100.00
66021;BME280;52789;59.980;30.346;2024-02-15T02:27:35;102476.41;;;-7.81;100.00
66021;BME280;52789;59.980;30.346;2024-02-15T02:30:04;102516.88;;;-7.51;100.00
66021;BME280;52789;59.980;30.346;2024-02-15T02:32:35;102532.31;;;-7.33;100.00
66021;BME280;52789;59.980;30.346;2024-02-15T02:35:02;102513.41;;;-7.45;100.00
66021;BME280;52789;59.980;30.346;2024-02-15T02:37:29;102472.09;;;-7.84;100.00
66021;BME280;52789;59.980;30.346;2024-02-15T02:39:54;102513.44;;;-7.59;100.00
66021;BME280;52789;59.980;30.346;2024-02-15T02:42:20;102540.97;;;-7.40;100.00
66021;BME280;52789;59.980;30.346;2024-02-15T02:44:46;102551.31;;;-7.37;100.00
66021;BME280;52789;59.980;30.346;2024-02-15T02:47:11;102491.88;;;-7.61;100.00
66021;BME280;52789;59.980;30.346;2024-02-15T02:49:37;102537.47;;;-7.30;100.00
66021;BME280;52789;59.980;30.346;2024-02-15T02:52:03;102548.66;;;-7.15;100.00
66021;BME280;52789;59.980;30.346;2024-02-15T02:54:29;102547.75;;;-7.08;100.00
66021;BME280;52789;59.980;30.346;2024-02-15T02:56:55;102535.72;;;-7.15;100.00
66021;BME280;52789;59.980;30.346;2024-02-15T02:59:21;102546.91;;;-7.12;100.00
66021;BME280;52789;59.980;30.346;2024-02-15T03:01:47;102531.41;;;-7.24;100.00
66021;BME280;52789;59.980;30.346;2024-02-15T03:04:15;102534.00;;;-7.20;100.00
66021;BME280;52789;59.980;30.346;2024-02-15T03:06:43;102540.03;;;-7.24;100.00
66021;BME280;52789;59.980;30.346;2024-02-15T03:09:09;102516.81;;;-7.37;100.00
66021;BME280;52789;59.980;30.346;2024-02-15T03:11:36;102531.38;;;-7.15;100.00
66021;BME280;52789;59.980;30.346;2024-02-15T03:14:02;102521.94;;;-7.21;100.00
66021;BME280;52789;59.980;30.346;2024-02-15T03:16:31;102535.69;;;-7.09;100.00
66021;BME280;52789;59.980;30.346;2024-02-15T03:18:57;102556.38;;;-7.09;100.00
66021;BME280;52789;59.980;30.346;2024-02-15T03:21:23;102525.41;;;-7.34;100.00
66021;BME280;52789;59.980;30.346;2024-02-15T03:23:48;102550.41;;;-7.30;100.00
66021;BME280;52789;59.980;30.346;2024-02-15T03:26:14;102504.78;;;-7.58;100.00
66021;BME280;52789;59.980;30.346;2024-02-15T03:28:39;102486.75;;;-7.70;100.00
66021;BME280;52789;59.980;30.346;2024-02-15T03:31:05;102547.84;;;-7.30;100.00
66021;BME280;52789;59.980;30.346;2024-02-15T03:33:31;102536.69;;;-7.42;100.00
66021;BME280;52789;59.980;30.346;2024-02-15T03:36:00;102525.47;;;-7.52;100.00
66021;BME280;52789;59.980;30.346;2024-02-15T03:38:27;102532.41;;;-7.51;100.00
66021;BME280;52789;59.980;30.346;2024-02-15T03:40:57;102550.47;;;-7.43;100.00
66021;BME280;52789;59.980;30.346;2024-02-15T03:43:23;102510.88;;;-7.68;100.00
66021;BME280;52789;59.980;30.346;2024-02-15T03:45:49;102522.03;;;-7.46;100.00
66021;BME280;52789;59.980;30.346;2024-02-15T03:48:16;102538.34;;;-7.32;100.00
66021;BME280;52789;59.980;30.346;2024-02-15T03:50:42;102528.06;;;-7.43;100.00
66021;BME280;52789;59.980;30.346;2024-02-15T03:53:09;102555.59;;;-7.27;100.00
66021;BME280;52789;59.980;30.346;2024-02-15T03:55:36;102536.63;;;-7.35;100.00
66021;BME280;52789;59.980;30.346;2024-02-15T03:58:02;102490.13;;;-7.59;100.00
66021;BME280;52789;59.980;30.346;2024-02-15T04:00:27;102395.53;;;-8.29;100.00
66021;BME280;52789;59.980;30.346;2024-02-15T04:02:53;102509.13;;;-7.59;100.00
66021;BME280;52789;59.980;30.346;2024-02-15T04:05:20;102399.84;;;-8.31;100.00
66021;BME280;52789;59.980;30.346;2024-02-15T04:07:47;102543.59;;;-7.51;100.00
66021;BME280;52789;59.980;30.346;2024-02-15T04:10:13;102553.94;;;-7.47;100.00
66021;BME280;52789;59.980;30.346;2024-02-15T04:12:57;102565.16;;;-7.47;100.00
66021;BME280;52789;59.980;30.346;2024-02-15T04:15:25;102541.88;;;-7.58;100.00
66021;BME280;52789;59.980;30.346;2024-02-15T04:17:51;102565.16;;;-7.55;100.00
66021;BME280;52789;59.980;30.346;2024-02-15T04:20:22;102545.38;;;-7.68;100.00
66021;BME280;52789;59.980;30.346;2024-02-15T04:22:47;102559.97;;;-7.56;100.00
66021;BME280;52789;59.980;30.346;2024-02-15T04:25:17;102551.41;;;-7.72;100.00
66021;BME280;52789;59.980;30.346;2024-02-15T04:27:46;102535.03;;;-7.68;100.00
66021;BME280;52789;59.980;30.346;2024-02-15T04:30:17;102473.91;;;-8.19;100.00
66021;BME280;52789;59.980;30.346;2024-02-15T04:32:43;102529.00;;;-7.84;100.00
66021;BME280;52789;59.980;30.346;2024-02-15T04:35:09;102491.97;;;-7.93;100.00
66021;BME280;52789;59.980;30.346;2024-02-15T04:37:36;102564.28;;;-7.52;100.00
66021;BME280;52789;59.980;30.346;2024-02-15T04:40:03;102545.38;;;-7.72;100.00
66021;BME280;52789;59.980;30.346;2024-02-15T04:42:40;102545.38;;;-7.71;100.00
66021;BME280;52789;59.980;30.346;2024-02-15T04:45:07;102554.81;;;-7.59;100.00
66021;BME280;52789;59.980;30.346;2024-02-15T04:47:42;102565.16;;;-7.56;100.00
66021;BME280;52789;59.980;30.346;2024-02-15T04:50:10;102546.22;;;-7.67;100.00
66021;BME280;52789;59.980;30.346;2024-02-15T04:52:39;102565.16;;;-7.53;100.00
66021;BME280;52789;59.980;30.346;2024-02-15T04:55:05;102532.47;;;-7.75;100.00
66021;BME280;52789;59.980;30.346;2024-02-15T04:57:30;102566.88;;;-7.57;100.00
66021;BME280;52789;59.980;30.346;2024-02-15T04:59:58;102508.31;;;-7.87;100.00
66021;BME280;52789;59.980;30.346;2024-02-15T05:02:25;102567.75;;;-7.56;100.00
66021;BME280;52789;59.980;30.346;2024-02-15T05:04:50;102544.47;;;-7.56;100.00
66021;BME280;52789;59.980;30.346;2024-02-15T05:07:21;102577.19;;;-7.37;100.00
66021;BME280;52789;59.980;30.346;2024-02-15T05:09:48;102526.41;;;-7.70;100.00
66021;BME280;52789;59.980;30.346;2024-02-15T05:12:24;102512.63;;;-7.78;100.00
66021;BME280;52789;59.980;30.346;2024-02-15T05:14:50;102536.72;;;-7.65;100.00
66021;BME280;52789;59.980;30.346;2024-02-15T05:17:16;102570.28;;;-7.35;100.00
66021;BME280;52789;59.980;30.346;2024-02-15T05:19:42;102532.38;;;-7.54;100.00
66021;BME280;52789;59.980;30.346;2024-02-15T05:22:07;102550.50;;;-7.46;100.00
66021;BME280;52789;59.980;30.346;2024-02-15T05:24:34;102559.06;;;-7.34;100.00
66021;BME280;52789;59.980;30.346;2024-02-15T05:27:00;102578.91;;;-7.30;100.00
66021;BME280;52789;59.980;30.346;2024-02-15T05:29:26;102548.78;;;-7.61;100.00
66021;BME280;52789;59.980;30.346;2024-02-15T05:31:53;102552.25;;;-7.62;100.00
66021;BME280;52789;59.980;30.346;2024-02-15T05:34:20;102598.78;;;-7.36;100.00
66021;BME280;52789;59.980;30.346;2024-02-15T05:36:45;102513.47;;;-7.84;100.00
66021;BME280;52789;59.980;30.346;2024-02-15T05:39:13;102594.47;;;-7.39;100.00
66021;BME280;52789;59.980;30.346;2024-02-15T05:41:39;102599.63;;;-7.34;100.00
66021;BME280;52789;59.980;30.346;2024-02-15T05:44:05;102595.28;;;-7.31;100.00
66021;BME280;52789;59.980;30.346;2024-02-15T05:46:32;102567.75;;;-7.45;100.00
66021;BME280;52789;59.980;30.346;2024-02-15T05:48:59;102613.41;;;-7.22;100.00
66021;BME280;52789;59.980;30.346;2024-02-15T05:51:24;102608.22;;;-7.28;100.00
66021;BME280;52789;59.980;30.346;2024-02-15T05:53:50;102607.38;;;-7.36;100.00
66021;BME280;52789;59.980;30.346;2024-02-15T05:56:16;102592.75;;;-7.44;100.00
66021;BME280;52789;59.980;30.346;2024-02-15T05:58:42;102592.75;;;-7.40;100.00
66021;BME280;52789;59.980;30.346;2024-02-15T06:01:07;102558.28;;;-7.60;100.00
66021;BME280;52789;59.980;30.346;2024-02-15T06:03:37;102607.38;;;-7.34;100.00
66021;BME280;52789;59.980;30.346;2024-02-15T06:06:05;102603.09;;;-7.43;100.00
66021;BME280;52789;59.980;30.346;2024-02-15T06:08:37;102617.72;;;-7.30;100.00
66021;BME280;52789;59.980;30.346;2024-02-15T06:11:03;102599.63;;;-7.39;100.00
66021;BME280;52789;59.980;30.346;2024-02-15T06:13:31;102580.69;;;-7.56;100.00
66021;BME280;52789;59.980;30.346;2024-02-15T06:15:57;102588.47;;;-7.50;100.00
66021;BME280;52789;59.980;30.346;2024-02-15T06:18:27;102609.97;;;-7.30;100.00
66021;BME280;52789;59.980;30.346;2024-02-15T06:20:55;102584.09;;;-7.37;100.00
66021;BME280;52789;59.980;30.346;2024-02-15T06:23:23;102591.84;;;-7.33;100.00
66021;BME280;52789;59.980;30.346;2024-02-15T06:25:51;102570.31;;;-7.38;100.00
66021;BME280;52789;59.980;30.346;2024-02-15T06:28:21;102597.00;;;-7.24;100.00
66021;BME280;52789;59.980;30.346;2024-02-15T06:31:09;102573.72;;;-7.33;100.00
66021;BME280;52789;59.980;30.346;2024-02-15T06:33:54;102596.94;;;-7.08;100.00
66021;BME280;52789;59.980;30.346;2024-02-15T06:36:47;102608.97;;;-6.91;100.00
66021;BME280;52789;59.980;30.346;2024-02-15T06:39:31;102612.41;;;-6.84;100.00
66021;BME280;52789;59.980;30.346;2024-02-15T06:42:13;102607.22;;;-6.87;100.00
66021;BME280;52789;59.980;30.346;2024-02-15T06:44:47;102611.56;;;-6.95;100.00
66021;BME280;52789;59.980;30.346;2024-02-15T06:47:13;102607.22;;;-6.82;100.00
66021;BME280;52789;59.980;30.346;2024-02-15T06:49:41;102585.69;;;-6.92;100.00
66021;BME280;52789;59.980;30.346;2024-02-15T06:52:07;102623.56;;;-6.73;100.00
66021;BME280;52789;59.980;30.346;2024-02-15T06:54:34;102622.66;;;-6.61;100.00
66021;BME280;52789;59.980;30.346;2024-02-15T06:57:04;102592.50;;;-6.76;100.00
66021;BME280;52789;59.980;30.346;2024-02-15T06:59:30;102579.59;;;-6.85;100.00
66021;BME280;52789;59.980;30.346;2024-02-15T07:01:57;102632.97;;;-6.50;100.00
66021;BME280;52789;59.980;30.346;2024-02-15T07:04:23;102628.56;;;-6.39;100.00
66021;BME280;52789;59.980;30.346;2024-02-15T07:06:51;102602.69;;;-6.45;100.00
66021;BME280;52789;59.980;30.346;2024-02-15T07:09:17;102619.91;;;-6.38;100.00
66021;BME280;52789;59.980;30.346;2024-02-15T07:11:45;102625.97;;;-6.39;100.00
66021;BME280;52789;59.980;30.346;2024-02-15T07:14:12;102602.81;;;-6.64;100.00
66021;BME280;52789;59.980;30.346;2024-02-15T07:16:38;102595.94;;;-6.77;100.00
66021;BME280;52789;59.980;30.346;2024-02-15T07:19:03;102614.91;;;-6.72;100.00
66021;BME280;52789;59.980;30.346;2024-02-15T07:21:29;102604.59;;;-6.81;100.00
66021;BME280;52789;59.980;30.346;2024-02-15T07:23:56;102615.84;;;-6.80;100.00
66021;BME280;52789;59.980;30.346;2024-02-15T07:26:23;102608.09;;;-6.94;100.00
66021;BME280;52789;59.980;30.346;2024-02-15T07:28:54;102633.09;;;-6.78;100.00
66021;BME280;52789;59.980;30.346;2024-02-15T07:31:21;102596.88;;;-6.89;100.00
66021;BME280;52789;59.980;30.346;2024-02-15T07:33:48;102621.84;;;-6.74;100.00
66021;BME280;52789;59.980;30.346;2024-02-15T07:36:18;102617.53;;;-6.73;100.00
66021;BME280;52789;59.980;30.346;2024-02-15T07:38:43;102600.22;;;-6.70;100.00
66021;BME280;52789;59.980;30.346;2024-02-15T07:41:11;102597.59;;;-6.58;100.00
66021;BME280;52789;59.980;30.346;2024-02-15T07:43:38;102630.28;;;-6.35;100.00
66021;BME280;52789;59.980;30.346;2024-02-15T07:46:04;102545.06;;;-6.85;100.00
66021;BME280;52789;59.980;30.346;2024-02-15T07:48:29;102585.50;;;-6.59;100.00
66021;BME280;52789;59.980;30.346;2024-02-15T07:50:55;102583.78;;;-6.60;100.00
66021;BME280;52789;59.980;30.346;2024-02-15T07:53:21;102594.03;;;-6.44;100.00
66021;BME280;52789;59.980;30.346;2024-02-15T07:55:46;102627.56;;;-6.17;100.00
66021;BME280;52789;59.980;30.346;2024-02-15T07:58:12;102585.41;;;-6.46;100.00
66021;BME280;52789;59.980;30.346;2024-02-15T08:00:39;102638.81;;;-6.18;100.00
66021;BME280;52789;59.980;30.346;2024-02-15T08:03:04;102589.63;;;-6.29;100.00
66021;BME280;52789;59.980;30.346;2024-02-15T08:05:30;102645.56;;;-5.96;100.00
66021;BME280;52789;59.980;30.346;2024-02-15T08:07:55;102623.22;;;-6.15;100.00
66021;BME280;52789;59.980;30.346;2024-02-15T08:10:22;102607.75;;;-6.26;100.00
66021;BME280;52789;59.980;30.346;2024-02-15T08:12:48;102638.72;;;-6.03;100.00
66021;BME280;52789;59.980;30.346;2024-02-15T08:15:17;102630.03;;;-5.99;100.00
66021;BME280;52789;59.980;30.346;2024-02-15T08:17:44;102615.34;;;-6.01;100.00
66021;BME280;52789;59.980;30.346;2024-02-15T08:20:12;102648.19;;;-5.99;100.00
66021;BME280;52789;59.980;30.346;2024-02-15T08:22:40;102624.09;;;-6.16;100.00
66021;BME280;52789;59.980;30.346;2024-02-15T08:25:09;102652.47;;;-5.95;100.00
66021;BME280;52789;59.980;30.346;2024-02-15T08:27:39;102612.84;;;-6.15;100.00
66021;BME280;52789;59.980;30.346;2024-02-15T08:30:12;102568.91;;;-6.33;100.00
66021;BME280;52789;59.980;30.346;2024-02-15T08:32:41;102645.41;;;-5.77;100.00
66021;BME280;52789;59.980;30.346;2024-02-15T08:35:14;102570.59;;;-6.28;100.00
66021;BME280;52789;59.980;30.346;2024-02-15T08:37:40;102639.50;;;-5.95;100.00
66021;BME280;52789;59.980;30.346;2024-02-15T08:40:08;102619.66;;;-6.00;100.00
66021;BME280;52789;59.980;30.346;2024-02-15T08:42:42;102648.63;;;-5.54;100.00
66021;BME280;52789;59.980;30.346;2024-02-15T08:45:08;102651.19;;;-5.51;100.00
66021;BME280;52789;59.980;30.346;2024-02-15T08:47:43;102629.81;;;-5.76;100.00
66021;BME280;52789;59.980;30.346;2024-02-15T08:50:11;102639.34;;;-5.81;100.00
66021;BME280;52789;59.980;30.346;2024-02-15T08:52:40;102635.91;;;-5.84;100.00
66021;BME280;52789;59.980;30.346;2024-02-15T08:55:06;102649.69;;;-5.73;100.00
66021;BME280;52789;59.980;30.346;2024-02-15T08:57:33;102629.00;;;-5.85;100.00
66021;BME280;52789;59.980;30.346;2024-02-15T08:59:59;102670.34;;;-5.63;100.00
66021;BME280;52789;59.980;30.346;2024-02-15T09:02:24;102652.25;;;-5.69;100.00
66021;BME280;52789;59.980;30.346;2024-02-15T09:04:50;102628.97;;;-5.78;100.00
66021;BME280;52789;59.980;30.346;2024-02-15T09:07:15;102634.03;;;-5.66;100.00
66021;BME280;52789;59.980;30.346;2024-02-15T09:09:41;102663.19;;;-5.35;100.00
66021;BME280;52789;59.980;30.346;2024-02-15T09:12:07;102594.28;;;-5.71;100.00
66021;BME280;52789;59.980;30.346;2024-02-15T09:14:33;102635.63;;;-5.51;100.00
66021;BME280;52789;59.980;30.346;2024-02-15T09:17:04;102651.97;;;-5.40;100.00
66021;BME280;52789;59.980;30.346;2024-02-15T09:19:36;102657.19;;;-5.43;100.00
66021;BME280;52789;59.980;30.346;2024-02-15T09:22:02;102664.19;;;-5.48;100.00
66021;BME280;52789;59.980;30.346;2024-02-15T09:24:30;102667.66;;;-5.49;100.00
66021;BME280;52789;59.980;30.346;2024-02-15T09:26:56;102659.06;;;-5.60;100.00
66021;BME280;52789;59.980;30.346;2024-02-15T09:29:23;102640.94;;;-5.65;100.00
66021;BME280;52789;59.980;30.346;2024-02-15T09:31:49;102651.94;;;-5.37;100.00
66021;BME280;52789;59.980;30.346;2024-02-15T09:34:15;102643.97;;;-5.18;100.00
66021;BME280;52789;59.980;30.346;2024-02-15T09:36:40;102664.56;;;-5.02;100.00
66021;BME280;52789;59.980;30.346;2024-02-15T09:39:06;102665.56;;;-5.13;100.00
66021;BME280;52789;59.980;30.346;2024-02-15T09:41:32;102675.81;;;-5.01;100.00
66021;BME280;52789;59.980;30.346;2024-02-15T09:43:59;102632.75;;;-5.23;100.00
66021;BME280;52789;59.980;30.346;2024-02-15T09:46:26;102661.09;;;-5.02;100.00
66021;BME280;52789;59.980;30.346;2024-02-15T09:48:55;102651.59;;;-5.03;100.00
66021;BME280;52789;59.980;30.346;2024-02-15T09:51:25;102647.31;;;-5.09;100.00
66021;BME280;52789;59.980;30.346;2024-02-15T09:53:51;102626.72;;;-5.25;100.00
66021;BME280;52789;59.980;30.346;2024-02-15T09:56:17;102667.22;;;-5.06;100.00
66021;BME280;52789;59.980;30.346;2024-02-15T09:58:43;102647.56;;;-5.32;100.00
66021;BME280;52789;59.980;30.346;2024-02-15T10:01:10;102644.97;;;-5.33;100.00
66021;BME280;52789;59.980;30.346;2024-02-15T10:03:40;102667.50;;;-5.34;100.00
66021;BME280;52789;59.980;30.346;2024-02-15T10:06:06;102643.41;;;-5.49;100.00
66021;BME280;52789;59.980;30.346;2024-02-15T10:08:32;102643.25;;;-5.34;100.00
66021;BME280;52789;59.980;30.346;2024-02-15T10:11:07;102648.09;;;-5.02;100.00
66021;BME280;52789;59.980;30.346;2024-02-15T10:13:34;102652.25;;;-4.86;100.00
66021;BME280;52789;59.980;30.346;2024-02-15T10:16:16;102673.75;;;-4.72;100.00
66021;BME280;52789;59.980;30.346;2024-02-15T10:18:42;102673.81;;;-4.76;100.00
66021;BME280;52789;59.980;30.346;2024-02-15T10:21:08;102612.00;;;-5.26;100.00
66021;BME280;52789;59.980;30.346;2024-02-15T10:23:33;102654.28;;;-5.12;100.00
66021;BME280;52789;59.980;30.346;2024-02-15T10:25:59;102662.72;;;-4.92;100.00
66021;BME280;52789;59.980;30.346;2024-02-15T10:28:27;102678.16;;;-4.78;100.00
66021;BME280;52789;59.980;30.346;2024-02-15T10:30:54;102671.22;;;-4.78;100.00
66021;BME280;52789;59.980;30.346;2024-02-15T10:33:26;102670.41;;;-4.83;100.00
66021;BME280;52789;59.980;30.346;2024-02-15T10:36:07;102662.72;;;-4.93;100.00
66021;BME280;52789;59.980;30.346;2024-02-15T10:38:33;102665.41;;;-5.00;100.00
66021;BME280;52789;59.980;30.346;2024-02-15T10:41:07;102661.09;;;-5.01;100.00
66021;BME280;52789;59.980;30.346;2024-02-15T10:43:33;102646.50;;;-5.12;100.00
66021;BME280;52789;59.980;30.346;2024-02-15T10:46:00;102644.50;;;-4.92;100.00
66021;BME280;52789;59.980;30.346;2024-02-15T10:48:29;102665.97;;;-4.75;100.00
66021;BME280;52789;59.980;30.346;2024-02-15T10:50:56;102648.53;;;-4.65;100.00
66021;BME280;52789;59.980;30.346;2024-02-15T10:53:28;102626.00;;;-4.66;100.00
66021;BME280;52789;59.980;30.346;2024-02-15T10:58:46;102656.13;;;-4.50;100.00
66021;BME280;52789;59.980;30.346;2024-02-15T11:01:12;102645.88;;;-4.60;100.00
66021;BME280;52789;59.980;30.346;2024-02-15T11:03:57;102648.47;;;-4.59;100.00
66021;BME280;52789;59.980;30.346;2024-02-15T11:06:27;102640.91;;;-4.79;100.00
66021;BME280;52789;59.980;30.346;2024-02-15T11:08:56;102660.06;;;-4.86;100.00
66021;BME280;52789;59.980;30.346;2024-02-15T11:11:23;102627.38;;;-5.05;100.00
66021;BME280;52789;59.980;30.346;2024-02-15T11:13:49;102648.84;;;-4.89;100.00
66021;BME280;52789;59.980;30.346;2024-02-15T11:16:41;102661.09;;;-5.01;100.00
66021;BME280;52789;59.980;30.346;2024-02-15T11:19:06;102644.75;;;-5.10;100.00
66021;BME280;52789;59.980;30.346;2024-02-15T11:21:54;102663.63;;;-4.96;100.00
66021;BME280;52789;59.980;30.346;2024-02-15T11:24:31;102661.09;;;-5.02;100.00
66021;BME280;52789;59.980;30.346;2024-02-15T11:27:03;102664.53;;;-5.00;100.00
66021;BME280;52789;59.980;30.346;2024-02-15T11:32:44;102659.34;;;-5.00;100.00
66021;BME280;52789;59.980;30.346;2024-02-15T11:35:15;102661.00;;;-4.94;100.00
66021;BME280;52789;59.980;30.346;2024-02-15T11:42:45;102647.81;;;-4.78;100.00
66021;BME280;52789;59.980;30.346;2024-02-15T11:45:15;102655.50;;;-4.69;100.00
66021;BME280;52789;59.980;30.346;2024-02-15T11:47:52;102658.97;;;-4.70;100.00
66021;BME280;52789;59.980;30.346;2024-02-15T11:50:19;102657.16;;;-4.63;100.00
66021;BME280;52789;59.980;30.346;2024-02-15T11:52:46;102600.28;;;-4.86;100.00
66021;BME280;52789;59.980;30.346;2024-02-15T11:55:14;102646.34;;;-4.29;100.00
66021;BME280;52789;59.980;30.346;2024-02-15T11:57:40;102632.66;;;-4.45;100.00
66021;BME280;52789;59.980;30.346;2024-02-15T12:00:23;102637.03;;;-4.47;100.00
66021;BME280;52789;59.980;30.346;2024-02-15T12:03:08;102593.91;;;-4.62;100.00
66021;BME280;52789;59.980;30.346;2024-02-15T12:05:54;102666.09;;;-4.18;100.00
66021;BME280;52789;59.980;30.346;2024-02-15T12:08:39;102643.75;;;-4.31;100.00
66021;BME280;52789;59.980;30.346;2024-02-15T12:11:23;102664.16;;;-4.03;100.00
66021;BME280;52789;59.980;30.346;2024-02-15T12:14:12;102630.69;;;-4.26;100.00
66021;BME280;52789;59.980;30.346;2024-02-15T12:17:05;102660.69;;;-4.06;100.00
66021;BME280;52789;59.980;30.346;2024-02-15T12:19:52;102668.56;;;-4.09;100.00
66021;BME280;52789;59.980;30.346;2024-02-15T12:22:20;102678.88;;;-4.01;100.00
66021;BME280;52789;59.980;30.346;2024-02-15T12:25:15;102638.47;;;-4.25;100.00
66021;BME280;52789;59.980;30.346;2024-02-15T12:27:42;102654.06;;;-4.25;100.00
66021;BME280;52789;59.980;30.346;2024-02-15T12:30:13;102603.72;;;-4.82;100.00
66021;BME280;52789;59.980;30.346;2024-02-15T12:32:39;102663.28;;;-4.67;100.00
66021;BME280;52789;59.980;30.346;2024-02-15T12:35:12;102667.41;;;-4.51;100.00
66021;BME280;52789;59.980;30.346;2024-02-15T12:40:34;102651.75;;;-4.46;100.00
66021;BME280;52789;59.980;30.346;2024-02-15T12:43:02;102676.00;;;-4.44;100.00
66021;BME280;52789;59.980;30.346;2024-02-15T12:45:30;102674.13;;;-4.33;100.00
66021;BME280;52789;59.980;30.346;2024-02-15T12:47:56;102654.44;;;-4.52;100.00
66021;BME280;52789;59.980;30.346;2024-02-15T12:50:31;102682.91;;;-4.43;100.00